createdAt,value
2018-11-26T00:00:36.255Z,122.33
2018-11-26T00:03:09.030Z,126.40
2018-11-26T00:05:38.996Z,124.43
2018-11-26T00:08:12.419Z,132.03
2018-11-26T00:10:52.327Z,138.97
2018-11-26T00:13:21.463Z,131.50
2018-11-26T00:15:50.491Z,138.93
2018-11-26T00:18:19.541Z,140.03
2018-11-26T00:20:48.538Z,138.73
2018-11-26T00:23:17.648Z,144.93
2018-11-26T00:25:46.706Z,146.27
2018-11-26T00:28:15.770Z,152.13
2018-11-26T00:30:44.560Z,149.57
2018-11-26T00:33:13.573Z,152.63
2018-11-26T00:35:42.841Z,139.47
2018-11-26T00:38:11.685Z,150.40
2018-11-26T00:40:40.735Z,149.33
2018-11-26T00:43:09.658Z,149.03
2018-11-26T00:45:38.719Z,136.33
2018-11-26T00:48:07.663Z,145.73
2018-11-26T00:50:36.839Z,137.10
2018-11-26T00:53:06.548Z,135.73
2018-11-26T00:55:35.722Z,140.83
2018-11-26T00:58:04.713Z,147.40
2018-11-26T01:00:33.807Z,141.00
2018-11-26T01:03:02.992Z,142.67
2018-11-26T01:05:35.622Z,140.50
2018-11-26T01:08:04.843Z,141.77
2018-11-26T01:10:33.922Z,133.40
2018-11-26T01:13:03.057Z,132.50
2018-11-26T01:15:31.982Z,121.37
2018-11-26T01:18:01.243Z,127.00
2018-11-26T01:20:30.298Z,134.73
2018-11-26T01:22:59.414Z,129.27
2018-11-26T01:25:28.590Z,126.10
2018-11-26T01:27:57.621Z,128.77
2018-11-26T01:30:26.820Z,123.40
2018-11-26T01:32:55.775Z,141.17
2018-11-26T01:35:24.941Z,128.87
2018-11-26T01:37:53.999Z,131.00
2018-11-26T01:40:27.662Z,128.23
2018-11-26T01:42:56.545Z,126.13
2018-11-26T01:45:25.644Z,116.20
2018-11-26T01:47:54.643Z,123.43
2018-11-26T01:50:23.778Z,124.70
2018-11-26T01:52:52.925Z,118.00
2018-11-26T01:55:21.735Z,123.77
2018-11-26T01:57:50.807Z,118.87
2018-11-26T02:00:21.936Z,116.67
2018-11-26T02:02:51.132Z,116.33
2018-11-26T02:05:20.269Z,118.33
2018-11-26T02:07:49.158Z,117.83
2018-11-26T02:10:19.367Z,120.47
2018-11-26T02:12:48.526Z,119.43
2018-11-26T02:15:38.292Z,117.37
2018-11-26T02:18:08.227Z,115.47
2018-11-26T02:20:37.166Z,114.10
2018-11-26T02:23:06.410Z,120.57
2018-11-26T02:25:35.577Z,114.07
2018-11-26T02:28:04.370Z,118.83
2018-11-26T02:30:33.344Z,115.57
2018-11-26T02:33:02.448Z,112.37
2018-11-26T02:35:31.235Z,109.07
2018-11-26T02:38:00.526Z,117.30
2018-11-26T02:40:30.724Z,112.63
2018-11-26T02:42:59.566Z,111.93
2018-11-26T02:45:30.254Z,104.90
2018-11-26T02:47:59.216Z,99.97
2018-11-26T02:50:28.357Z,108.53
2018-11-26T02:52:57.369Z,113.60
2018-11-26T02:55:27.274Z,114.40
2018-11-26T02:57:56.422Z,117.07
2018-11-26T03:00:25.559Z,118.13
2018-11-26T03:02:54.629Z,116.37
2018-11-26T03:05:27.156Z,127.20
2018-11-26T03:07:56.316Z,122.40
2018-11-26T03:10:25.619Z,137.90
2018-11-26T03:12:54.478Z,122.73
2018-11-26T03:15:23.586Z,130.03
2018-11-26T03:17:52.507Z,113.87
2018-11-26T03:20:21.460Z,119.00
2018-11-26T03:22:50.366Z,123.40
2018-11-26T03:25:19.506Z,135.03
2018-11-26T03:27:48.682Z,122.13
2018-11-26T03:30:19.883Z,119.37
2018-11-26T03:32:49.149Z,119.37
2018-11-26T03:35:18.259Z,122.37
2018-11-26T03:37:47.074Z,122.97
2018-11-26T03:40:16.162Z,129.47
2018-11-26T03:42:45.454Z,126.90
2018-11-26T03:45:18.730Z,132.40
2018-11-26T03:47:47.935Z,121.40
2018-11-26T03:50:17.126Z,120.97
2018-11-26T03:52:46.700Z,118.10
2018-11-26T03:55:15.679Z,123.57
2018-11-26T03:57:44.736Z,118.47
2018-11-26T04:00:15.354Z,117.07
2018-11-26T04:02:44.509Z,116.67
2018-11-26T04:05:13.669Z,113.73
2018-11-26T04:07:42.846Z,117.73
2018-11-26T04:10:13.653Z,76.10
2018-11-26T04:12:42.729Z,60.53
2018-11-26T04:15:13.042Z,55.67
2018-11-26T04:17:42.145Z,55.03
2018-11-26T04:20:11.322Z,48.40
2018-11-26T04:22:40.490Z,47.63
2018-11-26T04:25:10.214Z,80.90
2018-11-26T04:27:38.978Z,107.70
2018-11-26T04:30:11.171Z,116.87
2018-11-26T04:32:40.747Z,122.40
2018-11-26T04:35:10.233Z,119.97
2018-11-26T04:37:39.532Z,104.93
2018-11-26T04:40:10.173Z,131.67
2018-11-26T04:42:39.337Z,131.03
2018-11-26T04:45:09.791Z,120.70
2018-11-26T04:47:38.667Z,127.30
2018-11-26T04:50:10.125Z,135.30
2018-11-26T04:52:39.152Z,130.67
2018-11-26T04:55:09.057Z,135.07
2018-11-26T04:57:42.172Z,147.30
2018-11-26T05:00:10.058Z,145.87
2018-11-26T05:02:39.374Z,139.87
2018-11-26T05:05:08.984Z,139.77
2018-11-26T05:07:37.835Z,148.37
2018-11-26T05:10:08.661Z,150.10
2018-11-26T05:12:37.890Z,149.07
2018-11-26T05:15:08.426Z,147.03
2018-11-26T05:17:37.346Z,160.80
2018-11-26T05:20:08.302Z,142.80
2018-11-26T05:22:37.434Z,153.87
2018-11-26T05:25:08.047Z,137.93
2018-11-26T05:27:37.126Z,148.40
2018-11-26T05:30:08.049Z,145.37
2018-11-26T05:32:37.203Z,145.77
2018-11-26T05:35:07.467Z,148.20
2018-11-26T05:37:36.552Z,138.63
2018-11-26T05:40:07.448Z,147.03
2018-11-26T05:42:36.715Z,138.20
2018-11-26T05:45:07.346Z,155.80
2018-11-26T05:47:36.487Z,155.30
2018-11-26T05:50:06.878Z,148.87
2018-11-26T05:52:36.042Z,144.67
2018-11-26T05:55:05.282Z,145.83
2018-11-26T05:57:34.498Z,154.57
2018-11-26T06:00:03.300Z,154.27
2018-11-26T06:02:32.223Z,165.07
2018-11-26T06:05:01.398Z,157.83
2018-11-26T06:07:30.509Z,159.00
2018-11-26T06:09:59.618Z,150.37
2018-11-26T06:12:28.452Z,175.93
2018-11-26T06:14:57.503Z,173.17
2018-11-26T06:17:26.532Z,160.23
2018-11-26T06:19:55.430Z,163.63
2018-11-26T06:22:24.430Z,144.70
2018-11-26T06:24:53.611Z,165.33
2018-11-26T06:27:22.723Z,186.93
2018-11-26T06:29:51.904Z,164.60
2018-11-26T06:32:21.004Z,181.00
2018-11-26T06:34:50.086Z,198.80
2018-11-26T06:37:19.302Z,164.13
2018-11-26T06:39:48.166Z,184.53
2018-11-26T06:42:17.344Z,178.97
2018-11-26T06:44:46.382Z,167.87
2018-11-26T06:47:15.623Z,175.70
2018-11-26T06:49:44.580Z,155.60
2018-11-26T06:52:13.458Z,171.53
2018-11-26T06:54:42.644Z,171.40
2018-11-26T06:57:11.694Z,184.53
2018-11-26T06:59:40.885Z,164.10
2018-11-26T07:02:09.759Z,165.90
2018-11-26T07:04:38.814Z,163.03
2018-11-26T07:07:07.892Z,178.03
2018-11-26T07:09:37.076Z,172.33
2018-11-26T07:12:06.577Z,170.70
2018-11-26T07:14:35.674Z,166.63
2018-11-26T07:17:04.803Z,155.07
2018-11-26T07:19:33.853Z,164.45
2018-11-26T07:22:02.847Z,160.87
2018-11-26T07:24:31.899Z,156.10
2018-11-26T07:27:01.084Z,156.03
2018-11-26T07:29:30.037Z,151.43
2018-11-26T07:31:58.923Z,147.03
2018-11-26T07:34:28.087Z,151.20
2018-11-26T07:36:57.206Z,149.67
2018-11-26T07:39:26.349Z,156.23
2018-11-26T07:41:55.302Z,141.63
2018-11-26T07:44:24.570Z,154.20
2018-11-26T07:46:53.796Z,161.73
2018-11-26T07:49:23.394Z,150.80
2018-11-26T07:51:51.832Z,154.70
2018-11-26T07:54:21.014Z,162.00
2018-11-26T07:56:50.055Z,147.90
2018-11-26T07:59:19.162Z,179.10
2018-11-26T08:01:48.195Z,171.50
2018-11-26T08:04:16.955Z,200.80
2018-11-26T08:06:46.073Z,186.57
2018-11-26T08:09:15.180Z,190.50
2018-11-26T08:11:44.183Z,162.50
2018-11-26T08:14:13.378Z,183.43
2018-11-26T08:16:42.741Z,197.43
2018-11-26T08:19:11.978Z,174.17
2018-11-26T08:21:40.915Z,165.13
2018-11-26T08:24:10.250Z,164.83
2018-11-26T08:26:39.302Z,165.80
2018-11-26T08:29:08.347Z,164.90
2018-11-26T08:31:37.645Z,146.77
2018-11-26T08:34:07.141Z,119.30
2018-11-26T08:36:40.910Z,128.23
2018-11-26T08:39:16.458Z,123.27
2018-11-26T08:41:50.570Z,140.27
2018-11-26T08:44:28.500Z,129.57
2018-11-26T08:47:03.885Z,123.30
2018-11-26T08:49:34.128Z,133.30
2018-11-26T08:52:03.310Z,145.80
2018-11-26T08:54:32.154Z,212.13
2018-11-26T08:57:00.966Z,151.87
2018-11-26T08:59:30.188Z,132.80
2018-11-26T09:02:01.187Z,150.50
2018-11-26T09:04:32.187Z,149.57
2018-11-26T09:07:01.318Z,158.40
2018-11-26T09:09:32.966Z,112.67
2018-11-26T09:11:59.583Z,98.13
2018-11-26T09:14:28.547Z,109.57
2018-11-26T09:16:57.835Z,224.97
2018-11-26T09:19:27.008Z,213.70
2018-11-26T09:21:56.182Z,198.67
2018-11-26T09:24:25.287Z,186.97
2018-11-26T09:26:54.147Z,204.63
2018-11-26T09:29:23.159Z,192.67
2018-11-26T09:31:52.234Z,197.93
2018-11-26T09:34:21.421Z,196.70
2018-11-26T09:36:50.721Z,191.10
2018-11-26T09:39:19.543Z,204.83
2018-11-26T09:41:48.335Z,183.17
2018-11-26T09:44:17.294Z,184.40
2018-11-26T09:46:46.471Z,172.17
2018-11-26T09:49:15.602Z,185.53
2018-11-26T09:51:44.475Z,196.37
2018-11-26T09:54:13.644Z,179.07
2018-11-26T09:56:42.740Z,170.23
2018-11-26T09:59:11.876Z,193.63
2018-11-26T10:01:41.005Z,161.07
2018-11-26T10:04:09.914Z,170.23
2018-11-26T10:06:38.831Z,154.97
2018-11-26T10:09:10.435Z,167.30
2018-11-26T10:11:39.634Z,161.00
2018-11-26T10:14:09.233Z,167.83
2018-11-26T10:16:38.238Z,148.90
2018-11-26T10:19:07.478Z,167.30
2018-11-26T10:21:36.682Z,148.27
2018-11-26T10:24:05.958Z,171.83
2018-11-26T10:26:35.126Z,159.13
2018-11-26T10:29:04.360Z,156.80
2018-11-26T10:31:33.643Z,198.93
2018-11-26T10:34:02.562Z,175.07
2018-11-26T10:36:31.831Z,145.80
2018-11-26T10:39:00.691Z,127.30
2018-11-26T10:41:29.563Z,122.47
2018-11-26T10:43:58.535Z,110.50
2018-11-26T10:46:27.727Z,106.93
2018-11-26T10:48:56.714Z,106.00
2018-11-26T10:51:25.754Z,109.00
2018-11-26T10:53:54.899Z,112.37
2018-11-26T10:56:24.062Z,111.80
2018-11-26T10:58:52.986Z,107.17
2018-11-26T11:01:27.212Z,113.83
2018-11-26T11:03:56.194Z,135.13
2018-11-26T11:06:25.406Z,158.27
2018-11-26T11:08:54.648Z,150.80
2018-11-26T11:11:23.865Z,129.03
2018-11-26T11:13:52.854Z,113.03
2018-11-26T11:16:22.074Z,121.57
2018-11-26T11:18:51.390Z,109.10
2018-11-26T11:21:20.376Z,117.43
2018-11-26T11:23:49.628Z,112.10
2018-11-26T11:26:19.046Z,107.37
2018-11-26T11:28:47.924Z,120.43
2018-11-26T11:31:16.900Z,114.83
2018-11-26T11:33:45.969Z,115.20
2018-11-26T11:36:15.104Z,126.10
2018-11-26T11:38:44.381Z,128.90
2018-11-26T11:41:13.127Z,137.57
2018-11-26T11:43:41.968Z,124.57
2018-11-26T11:46:10.968Z,123.10
2018-11-26T11:48:40.081Z,133.33
2018-11-26T11:51:09.156Z,138.33
2018-11-26T11:53:38.191Z,136.10
2018-11-26T11:56:07.551Z,133.93
2018-11-26T11:58:36.676Z,134.53
2018-11-26T12:01:10.522Z,112.13
2018-11-26T12:03:35.146Z,116.70
2018-11-26T12:06:04.324Z,143.30
2018-11-26T12:08:33.272Z,129.40
2018-11-26T12:11:02.122Z,128.17
2018-11-26T12:13:31.104Z,129.17
2018-11-26T12:16:00.069Z,124.90
2018-11-26T12:18:29.151Z,115.13
2018-11-26T12:20:57.972Z,107.70
2018-11-26T12:23:26.837Z,113.27
2018-11-26T12:25:56.075Z,110.33
2018-11-26T12:28:25.172Z,104.73
2018-11-26T12:30:54.258Z,102.67
2018-11-26T12:33:23.371Z,96.73
2018-11-26T12:35:52.551Z,102.20
2018-11-26T12:38:21.792Z,107.23
2018-11-26T12:40:50.961Z,98.40
2018-11-26T12:43:20.248Z,95.60
2018-11-26T12:45:49.229Z,83.73
2018-11-26T12:48:18.172Z,85.47
2018-11-26T12:50:47.043Z,82.27
2018-11-26T12:53:16.361Z,114.20
2018-11-26T12:55:45.486Z,90.03
2018-11-26T12:58:14.616Z,85.53
2018-11-26T13:00:43.747Z,89.77
2018-11-26T13:03:13.948Z,91.17
2018-11-26T13:05:42.940Z,88.90
2018-11-26T13:08:12.069Z,90.17
2018-11-26T13:10:41.092Z,98.67
2018-11-26T13:13:11.009Z,90.60
2018-11-26T13:15:40.330Z,156.13
2018-11-26T13:18:09.612Z,91.40
2018-11-26T13:20:38.909Z,92.70
2018-11-26T13:23:09.221Z,91.47
2018-11-26T13:25:41.677Z,91.40
2018-11-26T13:28:09.201Z,90.67
2018-11-26T13:30:39.474Z,82.30
2018-11-26T13:33:12.841Z,115.33
2018-11-26T13:35:41.936Z,114.77
2018-11-26T13:38:11.168Z,104.40
2018-11-26T13:40:40.417Z,124.60
2018-11-26T13:43:10.646Z,130.87
2018-11-26T13:45:43.672Z,97.20
2018-11-26T13:48:14.055Z,96.67
2018-11-26T13:50:46.936Z,79.13
2018-11-26T13:53:16.005Z,91.67
2018-11-26T13:55:44.864Z,92.00
2018-11-26T13:58:14.140Z,108.73
2018-11-26T14:00:43.031Z,94.87
2018-11-26T14:03:12.252Z,101.60
2018-11-26T14:05:41.343Z,97.43
2018-11-26T14:08:10.425Z,111.23
2018-11-26T14:10:39.341Z,98.97
2018-11-26T14:13:10.924Z,88.43
2018-11-26T14:15:40.037Z,91.07
2018-11-26T14:18:09.166Z,91.53
2018-11-26T14:20:38.432Z,105.97
2018-11-26T14:23:07.789Z,102.00
2018-11-26T14:25:37.068Z,98.83
2018-11-26T14:28:06.395Z,82.43
2018-11-26T14:30:35.699Z,81.93
2018-11-26T14:33:04.647Z,85.20
2018-11-26T14:35:33.727Z,78.30
2018-11-26T14:38:04.502Z,79.17
2018-11-26T14:40:39.381Z,78.07
2018-11-26T14:43:08.477Z,73.53
2018-11-26T14:45:37.512Z,75.53
2018-11-26T14:48:06.910Z,75.83
2018-11-26T14:50:35.970Z,78.50
2018-11-26T14:53:06.209Z,75.47
2018-11-26T14:55:36.792Z,76.60
2018-11-26T14:58:06.464Z,76.67
2018-11-26T15:00:35.553Z,76.57
2018-11-26T15:03:05.349Z,72.10
2018-11-26T15:05:34.459Z,69.23
2018-11-26T15:08:03.592Z,68.00
2018-11-26T15:10:32.921Z,70.30
2018-11-26T15:13:02.063Z,67.97
2018-11-26T15:15:30.868Z,71.67
2018-11-26T15:18:00.104Z,72.37
2018-11-26T15:20:30.210Z,72.93
2018-11-26T15:23:00.812Z,68.17
2018-11-26T15:25:32.840Z,84.60
2018-11-26T15:28:07.741Z,98.27
2018-11-26T15:30:36.593Z,98.40
2018-11-26T15:33:05.880Z,82.43
2018-11-26T15:35:35.868Z,70.27
2018-11-26T15:38:05.051Z,81.17
2018-11-26T15:40:33.944Z,117.60
2018-11-26T15:43:03.020Z,99.20
2018-11-26T15:45:31.982Z,84.87
2018-11-26T15:48:02.204Z,153.30
2018-11-26T15:50:31.439Z,133.00
2018-11-26T15:53:00.320Z,77.63
2018-11-26T15:55:29.295Z,75.10
2018-11-26T15:57:58.616Z,74.83
2018-11-26T16:00:27.481Z,84.30
2018-11-26T16:02:56.696Z,70.40
2018-11-26T16:05:28.940Z,70.33
2018-11-26T16:08:00.322Z,53.53
2018-11-26T16:10:29.445Z,67.70
2018-11-26T16:12:59.877Z,65.73
2018-11-26T16:15:37.563Z,65.93
2018-11-26T16:18:09.367Z,66.33
2018-11-26T16:20:38.538Z,74.47
2018-11-26T16:23:09.243Z,64.87
2018-11-26T16:25:39.895Z,99.33
2018-11-26T16:28:09.253Z,111.63
2018-11-26T16:30:38.422Z,84.43
2018-11-26T16:33:08.055Z,61.23
2018-11-26T16:35:37.202Z,98.30
2018-11-26T16:38:06.898Z,109.77
2018-11-26T16:40:35.956Z,83.30
2018-11-26T16:43:05.184Z,81.83
2018-11-26T16:45:34.370Z,74.00
2018-11-26T16:48:03.820Z,75.37
2018-11-26T16:50:33.967Z,86.77
2018-11-26T16:53:03.118Z,75.07
2018-11-26T16:55:32.662Z,65.50
2018-11-26T16:58:01.775Z,69.03
2018-11-26T17:00:31.432Z,72.10
2018-11-26T17:03:02.239Z,66.17
2018-11-26T17:05:38.264Z,66.17
2018-11-26T17:08:08.843Z,69.77
2018-11-26T17:10:37.756Z,70.20
2018-11-26T17:13:06.931Z,62.53
2018-11-26T17:15:36.280Z,61.03
2018-11-26T17:18:06.197Z,59.73
2018-11-26T17:20:35.928Z,62.33
2018-11-26T17:23:05.144Z,69.77
2018-11-26T17:25:34.460Z,75.60
2018-11-26T17:28:04.397Z,74.40
2018-11-26T17:30:33.541Z,78.47
2018-11-26T17:33:04.485Z,78.83
2018-11-26T17:35:34.011Z,69.00
2018-11-26T17:38:03.109Z,65.33
2018-11-26T17:40:32.254Z,62.50
2018-11-26T17:43:01.281Z,62.73
2018-11-26T17:45:30.389Z,62.40
2018-11-26T17:48:00.348Z,62.83
2018-11-26T17:50:50.803Z,58.90
2018-11-26T17:53:21.153Z,57.10
2018-11-26T17:55:54.336Z,52.93
2018-11-26T17:58:26.547Z,64.83
2018-11-26T18:01:35.185Z,56.03
2018-11-26T18:04:04.936Z,53.30
2018-11-26T18:06:34.182Z,52.47
2018-11-26T18:09:03.486Z,51.70
2018-11-26T18:11:32.444Z,61.60
2018-11-26T18:14:01.395Z,54.30
2018-11-26T18:16:30.211Z,53.87
2018-11-26T18:18:59.324Z,54.90
2018-11-26T18:21:28.100Z,48.73
2018-11-26T18:23:57.369Z,53.77
2018-11-26T18:26:27.168Z,54.43
2018-11-26T18:28:55.920Z,52.37
2018-11-26T18:31:25.039Z,56.80
2018-11-26T18:33:54.175Z,49.97
2018-11-26T18:36:23.369Z,54.33
2018-11-26T18:38:52.597Z,53.70
2018-11-26T18:41:21.859Z,57.17
2018-11-26T18:43:51.205Z,59.13
2018-11-26T18:46:20.316Z,55.30
2018-11-26T18:48:49.748Z,53.47
2018-11-26T18:51:19.160Z,51.57
2018-11-26T18:53:48.235Z,48.97
2018-11-26T18:56:17.384Z,54.53
2018-11-26T18:58:46.541Z,56.80
2018-11-26T19:01:15.685Z,63.47
2018-11-26T19:03:44.827Z,61.30
2018-11-26T19:06:14.036Z,62.67
2018-11-26T19:08:43.224Z,58.93
2018-11-26T19:11:14.112Z,57.13
2018-11-26T19:14:05.206Z,60.47
2018-11-26T19:16:36.590Z,56.53
2018-11-26T19:19:06.156Z,55.10
2018-11-26T19:21:35.247Z,56.73
2018-11-26T19:24:04.596Z,53.03
2018-11-26T19:26:33.891Z,51.27
2018-11-26T19:29:03.105Z,54.53
2018-11-26T19:31:32.284Z,58.33
2018-11-26T19:34:01.155Z,58.87
2018-11-26T19:36:30.279Z,57.67
2018-11-26T19:38:59.184Z,63.67
2018-11-26T19:41:28.436Z,56.37
2018-11-26T19:43:57.685Z,84.23
2018-11-26T19:46:26.872Z,63.27
2018-11-26T19:48:56.196Z,65.73
2018-11-26T19:51:25.073Z,62.30
2018-11-26T19:53:55.323Z,60.67
2018-11-26T19:56:24.485Z,60.80
2018-11-26T19:58:54.594Z,63.53
2018-11-26T20:01:23.677Z,73.90
2018-11-26T20:03:56.800Z,72.27
2018-11-26T20:06:26.475Z,75.93
2018-11-26T20:08:58.048Z,153.10
2018-11-26T20:11:32.951Z,240.50
2018-11-26T20:13:56.324Z,149.87
2018-11-26T20:16:33.491Z,145.87
2018-11-26T20:19:02.400Z,88.73
2018-11-26T20:21:31.644Z,77.93
2018-11-26T20:24:00.804Z,178.93
2018-11-26T20:26:29.988Z,91.63
2018-11-26T20:28:59.314Z,73.57
2018-11-26T20:31:28.184Z,69.07
2018-11-26T20:33:57.376Z,60.40
2018-11-26T20:36:26.539Z,59.30
2018-11-26T20:38:55.691Z,53.73
2018-11-26T20:41:24.513Z,51.47
2018-11-26T20:43:53.808Z,52.00
2018-11-26T20:46:22.616Z,51.03
2018-11-26T20:48:51.667Z,48.80
2018-11-26T20:51:20.789Z,55.93
2018-11-26T20:53:49.712Z,57.10
2018-11-26T20:56:19.183Z,60.57
2018-11-26T20:58:48.440Z,62.17
2018-11-26T21:01:17.536Z,67.13
2018-11-26T21:03:47.040Z,60.63
2018-11-26T21:06:16.098Z,59.20
2018-11-26T21:08:45.445Z,54.17
2018-11-26T21:11:14.780Z,53.07
2018-11-26T21:13:44.053Z,61.00
2018-11-26T21:16:13.442Z,59.80
2018-11-26T21:18:42.780Z,62.97
2018-11-26T21:21:11.887Z,53.17
2018-11-26T21:23:41.277Z,50.33
2018-11-26T21:26:10.583Z,49.00
2018-11-26T21:28:40.072Z,47.67
2018-11-26T21:31:09.327Z,47.90
2018-11-26T21:33:38.884Z,47.40
2018-11-26T21:36:08.170Z,81.17
2018-11-26T21:38:39.224Z,58.43
2018-11-26T21:41:08.522Z,55.47
2018-11-26T21:43:38.123Z,105.23
2018-11-26T21:46:08.567Z,97.73
2018-11-26T21:48:38.184Z,68.37
2018-11-26T21:51:07.520Z,72.93
2018-11-26T21:53:36.843Z,64.77
2018-11-26T21:56:06.052Z,62.43
2018-11-26T21:58:35.315Z,61.77
2018-11-26T22:01:06.770Z,70.07
2018-11-26T22:03:36.433Z,139.47
2018-11-26T22:06:06.075Z,80.13
2018-11-26T22:08:35.520Z,102.13
2018-11-26T22:11:04.921Z,127.97
2018-11-26T22:13:34.185Z,97.07
2018-11-26T22:16:03.436Z,104.67
2018-11-26T22:18:32.653Z,88.57
2018-11-26T22:21:01.856Z,75.43
2018-11-26T22:23:31.239Z,71.37
2018-11-26T22:26:00.625Z,70.87
2018-11-26T22:28:30.118Z,114.37
2018-11-26T22:30:59.068Z,95.57
2018-11-26T22:33:28.300Z,86.10
2018-11-26T22:35:57.547Z,59.33
2018-11-26T22:38:26.497Z,60.27
2018-11-26T22:40:55.696Z,146.37
2018-11-26T22:43:24.884Z,84.90
2018-11-26T22:45:53.888Z,116.90
2018-11-26T22:48:22.992Z,111.13
2018-11-26T22:50:51.922Z,119.10
2018-11-26T22:53:21.249Z,110.37
2018-11-26T22:55:50.500Z,79.27
2018-11-26T22:58:19.598Z,64.23
2018-11-26T23:00:51.071Z,58.37
2018-11-26T23:03:21.500Z,54.53
2018-11-26T23:05:50.307Z,52.60
2018-11-26T23:08:19.527Z,53.30
2018-11-26T23:10:48.331Z,55.37
2018-11-26T23:13:17.450Z,59.67
2018-11-26T23:15:46.537Z,62.70
2018-11-26T23:18:15.632Z,49.83
2018-11-26T23:20:44.830Z,40.17
2018-11-26T23:23:13.528Z,45.83
2018-11-26T23:25:42.760Z,46.30
2018-11-26T23:28:11.676Z,45.07
2018-11-26T23:30:40.813Z,52.67
2018-11-26T23:33:10.195Z,60.70
2018-11-26T23:35:39.199Z,80.97
2018-11-26T23:38:07.953Z,47.30
2018-11-26T23:40:37.320Z,42.73
2018-11-26T23:43:06.907Z,41.53
2018-11-26T23:45:36.257Z,40.07
2018-11-26T23:48:05.592Z,39.37
2018-11-26T23:50:35.012Z,56.30
2018-11-26T23:53:03.899Z,56.77
2018-11-26T23:55:33.095Z,41.87
2018-11-26T23:58:02.164Z,41.47
